Résultats

25KM - ECOLO TRAIL IZOARD. Édition 2021.

25 Km
21/08/2021 à 08:30:00 - Villar Saint Pancrace (Hautes-Alpes)
97 arrivant(e)s.


 
Les autres classements de cet évènement




Place▲ Temps Dossard Nom Prenom Categ #Categ Sexe #Sexe Club Vit Moy Diplôme Partager
1 02:52:04 556 PELLOUX-TYTGAT ROMARIC M0M 1 M 1 EAG38 TEAM AS SPORTS MEYLAN 8.72
2 02:52:04 566 REYNAUD GAEL SEM 1 M 2 SCBA 05 8.72
3 02:56:13 540 MAGALHAES MICKAEL SEM 2 M 3 SCBA 8.51
4 02:56:36 480 BRUNET JULIEN SEM 3 M 4 8.49
5 03:04:44 537 LOPES DAVID M0M 2 M 5 8.12
6 03:14:12 553 PASERO TOMY SEM 4 M 6 7.72
7 03:20:16 539 LUQUET JEAN SEM 5 M 7 7.49
8 03:23:40 620 PORTE FIONA SEF 1 F 1 BRIANCON ATHLE 7.36
9 03:24:25 507 FINE OLIVIER M1M 1 M 8 SERRE CHEVALIER BRIANCON ATHLETISME 7.34
10 03:33:13 472 BERTHOU MARTIN JUM 1 M 9 7.04
11 03:39:51 554 PAUPE ADRIE M0M 3 M 10 6.82
12 03:42:15 523 KLEIN PIERRE M0M 4 M 11 6.75
13 03:43:00 583 VERDIER BAPTISTE SEM 6 M 12 6.73
14 03:43:57 501 DUMONT GEOFFROY SEM 7 M 13 6.70
15 03:45:18 547 MIRAN MAZARINE SEF 2 F 2 EVIAN OFF COURSE 6.66
16 03:46:12 561 PRIOR BRICE ESM 1 M 14 6.63
17 03:49:41 581 VAUBOURG JULIEN SEM 8 M 15 6.53
18 03:51:21 492 DANIEL MAXIMILIEN SEM 9 M 16 MARSEILLE TRAIL CLUB 6.48
19 03:51:54 560 PIEDJOUJEAC TRISTAN SEM 10 M 17 6.47
20 03:58:05 519 HOOGERDIJK PIETER M0M 5 M 18 6.30
21 04:03:29 534 LETERRIER ROBIN SEM 11 M 19 6.16
22 04:03:39 462 ALPHAND PIERRE SEM 12 M 20 6.16
23 04:04:35 586 VIRAT VINCENT SEM 13 M 21 6.13
24 04:07:31 481 BURGEVIN ALAIN M4M 1 M 22 6.06
25 04:07:34 513 GAUCHER OLIVIER M2M 1 M 23 SERRE CHE TRAIL SALOMON 6.06
26 04:07:44 529 LE-COZ JOEL M6M 1 M 24 6.05
27 04:09:37 527 LARCO CHRISTOPHE M2M 2 M 25 UC AUBENAS 6.01
28 04:09:37 562 QUIGNETTE ALEXIS SEM 14 M 26 LYON MOUNTAIN TRAIL 6.01
29 04:10:12 532 LEMUNIER NICOLAS M2M 3 M 27 6.00
30 04:11:31 550 MONIER THEO JUM 2 M 28 5.96
31 04:11:33 564 REQUILLART VINCENT SEM 15 M 29 5.96
32 04:12:33 520 IGIER KEVIN SEM 16 M 30 5.94
33 04:15:17 467 N:Anonyme 467 P:Anonyme 467 M3F 1 F 3 5.88
34 04:18:29 518 HERMITTE HELENE M1F 1 F 4 SERRE CHEVALIER BRIANCON ATHLETISME 5.80
35 04:19:59 514 GERLINGER FLORENT M0M 6 M 31 5.77
36 04:20:43 557 PEREZ-TORRA JAVIER SEM 17 M 32 ON RUN CREW 5.75
37 04:21:05 541 MAGRANER CAMILLE SEM 18 M 33 5.75
38 04:23:00 525 LACOUR ADRIEN SEM 19 M 34 5.70
39 04:24:54 531 LEFEVRE MATHIAS M2M 4 M 35 OM ATHLETISME LPM 5.66
40 04:27:23 578 THIVEND SOFYAN ESM 2 M 36 5.61
41 04:28:05 546 MICHEL JEAN-CHRISTOPHE M3M 1 M 37 GIOBERNEY TEAM 5.60
42 04:28:58 574 SELVE VINCENT M0M 7 M 38 5.58
43 04:29:28 582 VERDET ALEXANDRE ESM 3 M 39 5.57
44 04:31:46 516 GUIBERT LIONEL M2M 5 M 40 LMA 72 5.52
45 04:33:29 488 COSTILLE BRUNO M2M 6 M 41 5.48
46 04:34:48 584 VERGNAUD LOISE SEF 3 F 5 STADE FRANCAIS 5.46
47 04:38:23 528 LEBON FREDERIC M5M 1 M 42 5.39
48 04:39:49 466 BARRAS GUILLAUME M1M 2 M 43 ASPTT TOULON LA VALETTE 5.36
49 04:41:55 573 SELLA JEROME M2M 7 M 44 5.32
50 04:42:56 558 PERZO BENOIT M0M 8 M 45 5.30
51 04:46:45 548 MOKHTARI AMNAY SEM 20 M 46 5.23
52 04:47:39 470 BERSCH PATRICK M5M 2 M 47 5.21
53 04:48:50 512 GARCIA CECILE M0F 1 F 6 SAINT MAXIMIN ATHLETIC CLUB 5.19
54 04:49:51 478 BOLDRINI FABRICE M1M 3 M 48 MARSEILLE TRAIL CLUB 5.18
55 04:50:34 495 DELHOMMELLE RUBEN M1M 4 M 49 COURIR A VILLERS 5.16
56 04:51:28 552 MULLIEZ LOIC M2M 8 M 50 PROSECCO ON THE ROAD 5.15
57 04:53:27 522 KACHANER ALEXANDRA SEF 4 F 7 5.11
58 04:54:11 572 SCHIARI ANDRE M6M 2 M 51 5.10
59 04:57:42 499 DUCLOS LAURENT M2M 9 M 52 MARSEILLE TRAIL CLUB 5.04
60 04:59:01 579 TRIEU FREDERIC SEM 21 M 53 5.02
61 04:59:55 577 THIBAUD CORENTIN SEM 22 M 54 5.00
62 05:00:21 563 RAZE JOHAN M1M 5 M 55 4.99
63 05:02:10 570 SANCHEZ GEROME M2M 10 M 56 PAYS D?AIX TRAIL 4.96
64 05:02:28 485 CIVARDI GABRIEL M3M 2 M 57 LA FOULEE SALONNAISE 4.96
65 05:02:43 471 BERTEIN PAULINE SEF 5 F 8 MARSEILLE TRAIL CLUB MTC 4.96
66 05:08:42 500 DUFOUR THIERRY M3M 3 M 58 LOKOMOTIV MIRAMAS TRIATHLON 4.86
67 05:10:41 506 FAIVRET FREDERIC M2M 11 M 59 4.83
68 05:13:16 536 LOMBARDI DIDIER M0M 9 M 60 4.79
69 05:18:34 483 CHENET LAURENT M4M 2 M 61 4.71
70 05:20:01 464 BALDY VIRGINIE M3F 2 F 9 MARSEILLE TRAIL CLUB MTC 4.69
71 05:20:01 555 PAYSANT CELINE SEF 6 F 10 MARSEILLE TRAIL CLUB MTC 4.69
72 05:25:09 509 FOURETS NICO M2M 12 M 62 4.61
73 05:30:41 465 BARADEL SYLVIE M3F 3 F 11 4.54
74 05:33:17 505 EYNAUDI JEAN-FRANCOIS M1M 6 M 63 AC STREMY 4.50
75 05:33:18 517 HAYET VANESSA M1F 2 F 12 4.50
76 05:36:48 551 MOREL ALINE M1F 3 F 13 COSNE TRIATHLON 4.45
77 05:38:04 474 BIBAS-DEBRUILLE JEAN-PHILIPPE M5M 3 M 64 4.44
78 05:38:47 580 TROUILLET ESTELLE SEF 7 F 14 MARSEILLE TRAIL CLUB 4.43
79 05:38:50 571 SANNA DANIEL M5M 4 M 65 MARSEILLE TRAIL CLUB 4.43
80 05:41:43 477 BLOT CAROLINE M3F 4 F 15 MARSEILLE TRAIL CLUB 4.39
81 05:44:45 463 AMALRIC VALENTINE SEF 8 F 16 4.35
82 05:52:52 496 DE-SALINS VICTOIRE SEF 9 F 17 4.25
83 05:52:52 511 GALLET ANTOINE SEM 23 M 66 4.25
84 05:52:52 515 GIRARD CHARLOTTE SEF 10 F 18 4.25
85 05:56:32 468 N:Anonyme 468 P:Anonyme 468 M4M 3 M 67 AAA DU LYONNAIS 4.21
86 05:56:32 469 BERNARDO-DE-OLIVEIRA THEO ESM 4 M 68 4.21
87 06:00:19 461 ADLAN-MERINI PATRICK M5M 5 M 69 EP MANOSQUE ATHLETISME 4.16
88 06:04:17 490 DAGOT VICTOR SEM 24 M 70 4.12
89 06:04:18 530 LEDO ROMAIN M0M 10 M 71 4.12
90 06:05:49 497 DEVAUX JEAN-MICHEL M3M 4 M 72 TRIATHLON MIRAMAS LOKOMOTIV 4.10
91 06:05:49 526 N:Anonyme 526 P:Anonyme 526 M2M 13 M 73 LOKOMOTIV MIRAMAS TRIATHLON 4.10
92 06:07:02 535 LIMOZIN DOMINIQUE M8M 1 M 74 4.09
93 06:11:42 544 MARIETTE FANNY SEF 11 F 19 4.04
94 06:11:58 587 BARRIGA-RUIZ XIMENA-GEORGINA SEF 12 F 20 4.03
95 06:30:03 521 JAMAIN PHILIPPE M7M 1 M 75 3.85
96 06:45:43 542 MAIRE MELISSA SEF 13 F 21 3.70
97 08:37:22 576 TESSONNEAU DAVID M3M 5 M 76 2.90